Time;durP1;ratioP1;P1;durP2;ratioP2;P2;SDS_P1;SDS_P2;PMS_P1;PMS_P2;Temp;Humidity;BMP_temperature;BMP_pressure;BME280_temperature;BME280_humidity;BME280_pressure;Samples;Min_cycle;Max_cycle;Signal;HPM_P1;HPM_P2
2022/01/03 00:01:24;;;;;;;19.05;3.90;;;;;;;9.32;81.55;101148.16;5013553;28;20069;-67
2022/01/03 00:03:49;;;;;;;19.65;4.00;;;;;;;9.28;81.69;101141.53;5031129;28;20449;-68
2022/01/03 00:06:16;;;;;;;21.00;4.57;;;;;;;9.29;81.84;101148.38;5020275;28;20117;-67
2022/01/03 00:08:43;;;;;;;21.75;4.90;;;;;;;9.30;81.76;101139.66;5028547;28;20542;-67
2022/01/03 00:11:14;;;;;;;19.70;4.45;;;;;;;9.26;81.71;101148.56;5030283;28;20033;-67
2022/01/03 00:13:46;;;;;;;20.98;4.30;;;;;;;9.26;81.78;101144.22;5030756;28;20047;-67
2022/01/03 00:16:12;;;;;;;20.77;4.47;;;;;;;9.25;81.87;101155.53;5030964;28;20028;-66
2022/01/03 00:18:38;;;;;;;21.95;4.80;;;;;;;9.25;81.58;101152.09;5013046;28;20381;-67
2022/01/03 00:21:10;;;;;;;17.17;4.05;;;;;;;9.22;82.09;101167.84;4998679;28;20109;-67
2022/01/03 00:23:38;;;;;;;21.65;4.30;;;;;;;9.24;81.96;101166.00;4998623;28;20116;-68
2022/01/03 00:26:07;;;;;;;23.48;4.60;;;;;;;9.22;81.90;101163.50;5031032;28;20029;-67
2022/01/03 00:28:34;;;;;;;;;;;;;;;9.30;81.90;101161.19;5026838;28;20037;-67
2022/01/03 00:31:00;;;;;;;19.33;4.38;;;;;;;9.22;82.00;101167.84;5005515;28;19917;-67
2022/01/03 00:33:27;;;;;;;20.13;4.40;;;;;;;9.21;81.65;101161.00;5028080;28;20029;-66
2022/01/03 00:36:01;;;;;;;18.38;4.57;;;;;;;9.23;81.43;101164.31;5023132;28;20025;-67
2022/01/03 00:38:29;;;;;;;20.67;4.00;;;;;;;9.17;81.76;101164.75;5018020;28;20103;-67
2022/01/03 00:40:54;;;;;;;20.52;4.60;;;;;;;9.23;81.13;101159.13;4999249;28;20014;-67
2022/01/03 00:43:20;;;;;;;19.55;4.78;;;;;;;9.17;81.49;101159.56;5030431;28;20433;-67
2022/01/03 00:45:46;;;;;;;17.58;3.95;;;;;;;9.27;80.61;101165.75;5030541;28;20076;-67
2022/01/03 00:48:12;;;;;;;24.83;4.65;;;;;;;9.22;80.99;101152.31;5027827;28;20025;-67
2022/01/03 00:50:38;;;;;;;19.10;4.47;;;;;;;9.20;81.11;101164.53;5007745;28;20038;-67
2022/01/03 00:53:05;;;;;;;24.95;4.60;;;;;;;9.20;80.77;101161.97;5011056;28;20091;-67
2022/01/03 00:55:30;;;;;;;22.83;4.13;;;;;;;9.22;80.84;101162.66;5009654;28;20465;-67
2022/01/03 00:58:09;;;;;;;18.95;4.03;;;;;;;9.22;81.13;101162.66;5003830;28;20072;-67
2022/01/03 01:00:36;;;;;;;;;;;;;;;9.28;81.15;101157.06;5011041;28;20414;-67
2022/01/03 01:03:15;;;;;;;18.87;4.07;;;;;;;9.24;80.54;101166.00;4999096;28;19913;-67
2022/01/03 01:05:48;;;;;;;20.55;4.28;;;;;;;9.21;80.61;101145.50;5030358;28;20458;-67
2022/01/03 01:08:18;;;;;;;20.83;4.50;;;;;;;9.23;81.39;101177.25;5014745;28;20069;-67
2022/01/03 01:10:44;;;;;;;19.02;4.38;;;;;;;9.22;81.04;101168.66;5010700;28;20061;-67
2022/01/03 01:13:12;;;;;;;17.40;4.13;;;;;;;9.24;80.65;101168.56;5010943;28;20528;-68
2022/01/03 01:15:37;;;;;;;21.15;4.97;;;;;;;9.24;81.06;101176.34;5010687;28;20489;-67
2022/01/03 01:18:04;;;;;;;17.52;4.15;;;;;;;9.23;80.58;101178.09;5005708;28;20068;-67
2022/01/03 01:20:31;;;;;;;25.92;4.75;;;;;;;9.26;80.43;101182.22;4998778;28;20027;-68
2022/01/03 01:22:57;;;;;;;20.35;4.20;;;;;;;9.24;80.26;101181.50;5010558;28;20021;-69
2022/01/03 01:27:45;;;;;;;21.42;4.38;;;;;;;9.25;80.19;101180.56;5010375;28;20100;-70
2022/01/03 01:28:10;;;;;;;19.05;4.35;;;;;;;9.25;80.23;101188.34;5022223;28;20069;-67
2022/01/03 01:30:37;;;;;;;23.08;4.70;;;;;;;9.24;80.57;101194.47;5010388;28;20025;-67
2022/01/03 01:33:11;;;;;;;21.58;4.55;;;;;;;9.22;80.31;101193.72;5010540;28;20047;-67
2022/01/03 01:35:50;;;;;;;23.95;5.25;;;;;;;9.21;80.50;101197.25;5010386;28;20417;-68
2022/01/03 01:38:18;;;;;;;23.98;4.80;;;;;;;9.21;80.22;101202.44;5002834;28;20022;-67
2022/01/03 01:40:58;;;;;;;18.77;4.40;;;;;;;9.22;80.30;101209.25;4992301;28;20109;-67
2022/01/03 01:43:43;;;;;;;23.02;4.63;;;;;;;9.25;80.03;101198.69;4981793;28;20051;-68
2022/01/03 01:46:11;;;;;;;22.33;4.45;;;;;;;9.19;80.16;101204.31;4987640;28;20030;-67
2022/01/03 01:48:39;;;;;;;18.52;4.43;;;;;;;9.22;79.76;101198.91;4993974;28;20042;-66
2022/01/03 01:51:07;;;;;;;19.75;4.88;;;;;;;9.17;79.96;101201.78;4987990;28;20026;-67
2022/01/03 01:53:40;;;;;;;22.60;5.05;;;;;;;9.17;80.05;101185.44;4975000;28;20030;-67
2022/01/03 01:56:13;;;;;;;19.25;4.20;;;;;;;9.15;79.95;101185.56;4961602;28;20030;-67
2022/01/03 01:58:58;;;;;;;20.63;4.75;;;;;;;9.12;80.16;101197.88;4987256;28;20030;-67
2022/01/03 02:01:40;;;;;;;20.75;4.63;;;;;;;9.12;79.88;101192.69;4975190;28;20026;-67
2022/01/03 02:04:25;;;;;;;21.80;5.03;;;;;;;9.11;80.41;101180.69;4985831;28;20524;-68
2022/01/03 02:06:55;;;;;;;22.33;4.97;;;;;;;9.07;80.02;101184.47;5002618;28;20033;-67
2022/01/03 02:09:32;;;;;;;20.98;4.72;;;;;;;9.07;80.14;101194.81;5013870;28;20048;-67
2022/01/03 02:11:57;;;;;;;19.52;4.25;;;;;;;8.98;80.04;101194.50;5013626;28;20022;-66
2022/01/03 02:14:26;;;;;;;23.30;4.40;;;;;;;8.97;80.11;101199.78;5000627;28;20030;-67
2022/01/03 02:16:52;;;;;;;;;;;;;;;9.08;80.66;101199.88;4994672;28;20101;-66
2022/01/03 02:19:19;;;;;;;18.75;4.32;;;;;;;9.00;80.10;101203.00;4976274;28;19909;-66
2022/01/03 02:21:45;;;;;;;17.65;4.45;;;;;;;8.96;80.10;101192.97;4993771;28;20026;-66
2022/01/03 02:24:10;;;;;;;19.45;4.00;;;;;;;8.90;80.37;101194.19;4976306;28;20022;-66
2022/01/03 02:26:36;;;;;;;22.70;4.57;;;;;;;8.91;80.37;101197.63;4976335;28;20125;-67
2022/01/03 02:29:03;;;;;;;22.88;4.65;;;;;;;8.86;80.67;101199.69;5013226;28;20501;-67
2022/01/03 02:31:28;;;;;;;22.33;4.57;;;;;;;8.82;80.44;101196.47;5004546;28;20137;-67
2022/01/03 02:33:54;;;;;;;19.80;4.15;;;;;;;8.88;79.93;101201.22;4971711;28;20117;-66
2022/01/03 02:36:19;;;;;;;21.67;4.53;;;;;;;8.85;80.42;101205.81;4987225;28;20054;-67
2022/01/03 02:38:45;;;;;;;20.30;4.47;;;;;;;8.83;80.16;101203.31;4975716;28;20034;-67
2022/01/03 02:41:11;;;;;;;19.88;4.38;;;;;;;8.84;80.30;101204.16;4993073;28;20030;-67
2022/01/03 02:43:37;;;;;;;20.88;4.40;;;;;;;8.84;80.69;101191.22;5007546;28;20069;-67
2022/01/03 02:46:03;;;;;;;21.50;4.47;;;;;;;8.81;80.13;101192.22;4998090;28;20046;-67
2022/01/03 02:48:29;;;;;;;19.50;4.32;;;;;;;8.81;80.54;101205.16;4995253;28;20413;-66
2022/01/03 02:50:55;;;;;;;19.88;4.70;;;;;;;8.77;80.88;101195.94;5012644;28;20061;-66
2022/01/03 02:53:21;;;;;;;20.67;4.47;;;;;;;8.76;80.50;101204.66;5012196;28;20034;-67
2022/01/03 02:55:47;;;;;;;19.77;4.45;;;;;;;8.76;80.79;101196.88;5012656;28;20458;-67
2022/01/03 02:58:13;;;;;;;24.08;5.43;;;;;;;8.78;80.76;101202.81;4999499;28;20076;-67
2022/01/03 03:00:45;;;;;;;23.00;4.63;;;;;;;8.77;80.72;101201.13;4993245;28;20029;-67
2022/01/03 03:03:12;;;;;;;21.92;4.88;;;;;;;8.74;80.99;101199.59;4987760;28;20369;-67
2022/01/03 03:05:37;;;;;;;20.80;4.80;;;;;;;8.75;80.96;101200.41;4987291;28;20462;-66
2022/01/03 03:08:03;;;;;;;22.80;4.80;;;;;;;8.73;80.88;101197.13;4993214;28;20041;-67
2022/01/03 03:10:29;;;;;;;21.05;5.28;;;;;;;8.75;81.05;101198.66;4975374;28;20474;-66
2022/01/03 03:12:54;;;;;;;20.83;6.03;;;;;;;8.73;80.96;101212.63;4999628;28;20091;-67
2022/01/03 03:15:21;;;;;;;21.92;5.55;;;;;;;8.77;81.00;101203.72;5005377;28;20027;-67
2022/01/03 03:17:47;;;;;;;21.40;5.25;;;;;;;8.74;81.11;101212.53;4992711;28;20586;-67
2022/01/03 03:20:18;;;;;;;23.27;5.32;;;;;;;8.73;81.45;101215.22;4992411;28;20382;-67
2022/01/03 03:22:44;;;;;;;23.23;5.93;;;;;;;8.70;81.43;101218.00;4999632;28;20033;-67
2022/01/03 03:25:14;;;;;;;24.42;6.28;;;;;;;8.68;81.90;101219.88;5011647;28;20120;-68
2022/01/03 03:27:45;;;;;;;23.48;5.93;;;;;;;8.71;81.51;101214.47;4986959;28;20112;-67
2022/01/03 03:30:14;;;;;;;20.60;5.78;;;;;;;8.74;81.40;101215.09;5011998;28;20108;-67
2022/01/03 03:32:40;;;;;;;20.77;5.90;;;;;;;8.75;81.74;101218.50;5002968;28;20492;-67
2022/01/03 03:35:06;;;;;;;23.90;6.57;;;;;;;8.77;81.53;101214.06;4992141;28;20022;-67
2022/01/03 03:37:31;;;;;;;22.60;6.50;;;;;;;8.74;81.86;101209.09;4974713;28;20072;-66
2022/01/03 03:39:56;;;;;;;23.45;5.97;;;;;;;8.71;82.11;101204.94;4974417;28;20105;-66
2022/01/03 03:42:22;;;;;;;20.83;5.78;;;;;;;8.77;81.80;101211.47;4983802;28;20081;-67
2022/01/03 03:44:47;;;;;;;26.45;6.18;;;;;;;8.82;81.59;101204.22;5011800;28;20028;-67
2022/01/03 03:47:13;;;;;;;27.80;5.95;;;;;;;8.80;81.92;101198.34;5011899;28;20060;-67
2022/01/03 03:49:39;;;;;;;27.88;6.68;;;;;;;8.80;81.79;101203.50;5011625;28;20053;-67
2022/01/03 03:52:04;;;;;;;24.52;5.50;;;;;;;8.83;81.61;101203.31;5011700;28;20026;-67
2022/01/03 03:54:31;;;;;;;20.50;5.55;;;;;;;8.84;81.38;101199.81;5016817;28;20025;-66
2022/01/03 03:56:57;;;;;;;21.88;5.55;;;;;;;8.83;81.63;101187.81;5030256;28;20112;-66
2022/01/03 03:59:24;;;;;;;24.05;5.90;;;;;;;8.84;81.40;101199.81;5030593;28;20032;-67
2022/01/03 04:01:50;;;;;;;23.02;5.85;;;;;;;8.85;81.84;101185.94;5031150;28;20037;-66
2022/01/03 04:04:15;;;;;;;20.90;5.25;;;;;;;8.85;81.37;101185.94;5030496;28;20063;-67
2022/01/03 04:06:41;;;;;;;22.40;5.63;;;;;;;8.89;81.55;101187.38;4995877;28;20026;-66
2022/01/03 04:09:06;;;;;;;23.25;5.47;;;;;;;8.84;81.53;101189.47;5011395;28;20096;-66
2022/01/03 04:11:32;;;;;;;22.52;5.40;;;;;;;8.86;81.31;101182.41;5025360;28;20033;-66
2022/01/03 04:13:57;;;;;;;23.55;5.75;;;;;;;8.86;81.46;101177.22;5031423;28;20030;-66
2022/01/03 04:16:22;;;;;;;23.05;5.47;;;;;;;8.83;81.49;101177.47;5030810;28;20096;-66
2022/01/03 04:18:48;;;;;;;23.85;5.30;;;;;;;8.85;81.32;101179.94;5030969;28;20094;-66
2022/01/03 04:21:13;;;;;;;22.80;5.72;;;;;;;8.80;81.80;101172.47;5030609;28;20097;-66
2022/01/03 04:23:38;;;;;;;23.58;6.35;;;;;;;8.78;81.55;101164.84;5017428;28;20037;-66
2022/01/03 04:26:04;;;;;;;22.38;6.25;;;;;;;8.78;81.54;101171.78;5031310;28;20026;-66
2022/01/03 04:28:30;;;;;;;25.80;5.68;;;;;;;8.79;81.30;101170.84;5030873;28;20025;-66
2022/01/03 04:30:56;;;;;;;25.10;6.43;;;;;;;8.75;81.52;101164.22;5030238;28;20101;-66
2022/01/03 04:33:22;;;;;;;27.45;5.95;;;;;;;8.78;81.39;101169.19;5030913;28;20088;-66
2022/01/03 04:35:47;;;;;;;24.23;5.35;;;;;;;8.71;82.13;101158.41;4999889;28;20061;-66
2022/01/03 04:38:13;;;;;;;20.98;5.50;;;;;;;8.74;82.00;101167.72;4994288;28;20469;-67
2022/01/03 04:40:38;;;;;;;23.77;5.57;;;;;;;8.75;81.98;101170.19;5029651;28;20033;-66
2022/01/03 04:43:04;;;;;;;24.98;5.85;;;;;;;8.77;81.62;101180.44;5023415;28;20057;-66
2022/01/03 04:45:29;;;;;;;25.08;5.72;;;;;;;8.71;81.86;101171.34;5022758;28;20505;-67
2022/01/03 04:47:55;;;;;;;29.40;6.53;;;;;;;8.75;81.99;101171.97;5004912;28;20033;-67
2022/01/03 04:50:20;;;;;;;23.83;5.53;;;;;;;8.71;82.05;101162.75;4992311;28;20030;-66
2022/01/03 04:52:46;;;;;;;23.70;5.80;;;;;;;8.73;82.09;101160.91;5003297;28;20104;-67
2022/01/03 04:55:11;;;;;;;25.98;5.82;;;;;;;8.76;81.41;101160.69;5007656;28;20048;-66
2022/01/03 04:57:37;;;;;;;21.25;5.38;;;;;;;8.77;82.10;101167.50;5010776;28;20111;-67
2022/01/03 05:00:05;;;;;;;26.05;5.97;;;;;;;8.76;82.01;101171.84;5010944;28;20037;-68
2022/01/03 05:02:30;;;;;;;25.43;5.23;;;;;;;8.79;81.95;101168.25;4999057;28;20123;-67
2022/01/03 05:04:56;;;;;;;25.10;5.72;;;;;;;8.80;81.72;101167.31;4984821;28;20873;-67
2022/01/03 05:07:21;;;;;;;21.13;5.80;;;;;;;8.78;81.83;101158.84;4999738;28;20542;-67
2022/01/03 05:09:46;;;;;;;23.20;5.07;;;;;;;8.78;81.80;101162.25;4998549;28;20092;-67
2022/01/03 05:12:12;;;;;;;24.17;5.70;;;;;;;8.78;81.58;101158.84;5006591;28;20469;-67
2022/01/03 05:14:38;;;;;;;23.05;5.78;;;;;;;8.74;81.57;101152.22;5006288;28;20030;-67
2022/01/03 05:17:03;;;;;;;22.35;5.47;;;;;;;8.74;81.46;101147.88;5001592;28;20028;-66
2022/01/03 05:19:29;;;;;;;27.30;6.20;;;;;;;8.77;81.40;101144.22;4996648;28;20026;-67
2022/01/03 05:21:54;;;;;;;25.65;6.10;;;;;;;8.75;81.75;101148.69;4989786;28;20375;-66
2022/01/03 05:24:19;;;;;;;23.08;5.65;;;;;;;8.77;81.89;101141.63;5014606;28;20466;-67
2022/01/03 05:26:45;;;;;;;24.33;5.80;;;;;;;8.77;81.63;101139.06;5014488;28;20437;-67
2022/01/03 05:29:10;;;;;;;27.30;5.97;;;;;;;8.74;81.75;101147.88;5014278;28;20041;-67
2022/01/03 05:31:36;;;;;;;23.15;5.40;;;;;;;8.75;82.26;101143.53;5014300;28;20476;-67
2022/01/03 05:34:02;;;;;;;20.27;5.47;;;;;;;8.74;81.97;101141.88;5014274;28;20018;-67
2022/01/03 05:36:28;;;;;;;24.25;5.30;;;;;;;8.74;81.90;101141.88;4995931;28;20029;-67
2022/01/03 05:38:53;;;;;;;22.60;5.00;;;;;;;8.75;82.13;101143.53;5020635;28;20785;-67
2022/01/03 05:41:19;;;;;;;25.42;5.20;;;;;;;8.75;82.47;101133.19;5020945;28;20390;-67
2022/01/03 05:43:45;;;;;;;24.52;5.18;;;;;;;8.75;82.29;101133.19;5022316;28;20397;-67
2022/01/03 05:46:11;;;;;;;22.05;5.05;;;;;;;8.75;81.98;101143.53;5001336;28;20033;-67
2022/01/03 05:48:37;;;;;;;23.13;5.30;;;;;;;8.71;82.48;101131.72;5013650;28;20565;-68
2022/01/03 05:51:02;;;;;;;26.63;5.50;;;;;;;8.71;82.19;101137.72;5013985;28;20026;-67
2022/01/03 05:53:30;;;;;;;21.75;4.97;;;;;;;8.67;82.23;101125.94;5018606;28;20029;-67
2022/01/03 05:55:56;;;;;;;24.25;6.30;;;;;;;8.74;82.15;101126.34;5012334;28;20462;-67
2022/01/03 05:58:21;;;;;;;21.90;4.85;;;;;;;8.71;82.35;101131.72;4988266;28;20046;-67
2022/01/03 06:00:47;;;;;;;22.60;5.32;;;;;;;8.69;82.47;101125.84;5007670;28;20024;-67
2022/01/03 06:03:14;;;;;;;22.25;4.68;;;;;;;8.70;82.29;101125.72;5007370;28;20100;-67
2022/01/03 06:06:04;;;;;;;26.25;5.10;;;;;;;8.71;82.29;101121.38;5013281;28;20029;-68
2022/01/03 06:08:25;;;;;;;22.15;4.72;;;;;;;8.69;82.44;101131.00;5005650;28;20042;-67
2022/01/03 06:10:50;;;;;;;23.42;5.18;;;;;;;8.68;82.32;101124.19;4995432;28;20500;-66
2022/01/03 06:13:17;;;;;;;19.63;4.57;;;;;;;8.72;81.89;101128.22;5012911;28;20520;-67
2022/01/03 06:15:44;;;;;;;24.13;4.80;;;;;;;8.71;82.11;101126.56;5000369;28;20026;-67
2022/01/03 06:18:13;;;;;;;19.88;4.90;;;;;;;8.70;81.89;101125.72;5013240;28;20029;-67
2022/01/03 06:20:40;;;;;;;22.13;4.90;;;;;;;8.69;82.16;101128.44;5013313;28;20418;-67
2022/01/03 06:23:05;;;;;;;21.73;4.65;;;;;;;8.66;82.17;101121.72;5014004;28;20030;-67
2022/01/03 06:25:31;;;;;;;19.98;4.38;;;;;;;8.66;82.10;101118.28;5015178;28;20042;-67
2022/01/03 06:27:56;;;;;;;19.98;4.68;;;;;;;8.64;82.12;101125.31;4993730;28;20112;-67
2022/01/03 06:30:22;;;;;;;20.90;4.95;;;;;;;8.65;82.00;101117.47;5001895;28;20381;-67
2022/01/03 06:32:47;;;;;;;21.08;4.10;;;;;;;8.59;82.18;101111.88;4995415;28;20053;-67
2022/01/03 06:35:13;;;;;;;18.50;4.47;;;;;;;8.59;82.37;101123.06;5012946;28;20022;-67
2022/01/03 06:37:38;;;;;;;24.50;4.68;;;;;;;8.62;82.34;101119.44;5012728;28;20470;-67
2022/01/03 06:40:06;;;;;;;22.38;4.70;;;;;;;8.56;82.28;101112.94;5013220;28;20407;-67
2022/01/03 06:42:31;;;;;;;20.10;4.00;;;;;;;8.54;82.21;101109.59;5012514;28;20446;-67
2022/01/03 06:44:57;;;;;;;18.67;4.28;;;;;;;8.57;82.46;101108.59;5014453;28;20544;-70
2022/01/03 06:47:22;;;;;;;19.55;4.40;;;;;;;8.52;82.54;101106.31;5012249;28;20026;-67
2022/01/03 06:49:47;;;;;;;23.35;5.10;;;;;;;8.50;82.57;101114.19;5013513;28;20454;-67
2022/01/03 06:52:13;;;;;;;22.77;4.95;;;;;;;8.51;82.93;101115.00;5013086;28;20484;-67
2022/01/03 06:54:39;;;;;;;19.38;4.32;;;;;;;8.51;82.65;101110.66;5011623;28;20077;-68
2022/01/03 06:57:04;;;;;;;22.92;5.03;;;;;;;8.51;83.12;101105.50;5012563;28;20065;-67
2022/01/03 06:59:30;;;;;;;23.85;4.90;;;;;;;8.51;82.94;101105.50;5019910;28;20054;-67
2022/01/03 07:01:55;;;;;;;19.60;4.38;;;;;;;8.52;83.22;101107.13;4998202;28;20124;-68
2022/01/03 07:04:21;;;;;;;21.75;4.68;;;;;;;8.54;82.95;101113.94;4998963;28;20026;-67
2022/01/03 07:06:46;;;;;;;23.58;4.38;;;;;;;8.52;83.30;101112.31;5010084;28;20034;-67
2022/01/03 07:09:11;;;;;;;19.45;4.38;;;;;;;8.50;83.60;101103.84;5012262;28;20030;-68
2022/01/03 07:11:37;;;;;;;23.38;4.43;;;;;;;8.49;84.07;101109.94;5012497;28;20072;-67
2022/01/03 07:19:31;;;;;;;20.15;4.25;;;;;;;8.50;84.08;101093.50;5012860;28;20033;-67
2022/01/03 07:21:56;;;;;;;21.65;4.72;;;;;;;8.51;84.35;101094.31;4985468;28;20025;-67
2022/01/03 07:24:21;;;;;;;20.58;4.22;;;;;;;8.50;84.15;101103.84;5011385;28;20378;-68
2022/01/03 07:26:46;;;;;;;18.05;4.10;;;;;;;8.47;84.51;101104.03;5012107;28;20125;-67
2022/01/03 07:29:12;;;;;;;19.35;4.20;;;;;;;8.49;84.71;101102.19;5011795;28;20104;-68
2022/01/03 07:31:37;;;;;;;21.65;4.70;;;;;;;8.46;84.67;101102.38;5007428;28;20041;-68
2022/01/03 07:34:02;;;;;;;20.23;4.30;;;;;;;8.46;84.84;101097.22;5010843;28;20490;-67
2022/01/03 07:36:30;;;;;;;22.15;4.43;;;;;;;8.47;84.61;101098.88;5002973;28;20022;-67
2022/01/03 07:38:55;;;;;;;19.23;5.35;;;;;;;8.44;84.58;101109.44;5009655;28;20033;-67
2022/01/03 07:41:20;;;;;;;17.38;4.15;;;;;;;8.43;84.92;101104.34;5014212;28;20044;-68
2022/01/03 07:43:46;;;;;;;21.13;4.43;;;;;;;8.45;84.89;101100.75;5031189;28;20057;-67
2022/01/03 07:46:11;;;;;;;18.08;4.57;;;;;;;8.42;84.68;101106.09;5026999;28;20088;-67
2022/01/03 07:48:37;;;;;;;16.10;3.55;;;;;;;8.43;85.02;101117.25;5006697;28;20018;-67
2022/01/03 07:51:02;;;;;;;19.95;4.03;;;;;;;8.39;84.95;101111.50;5023792;28;20064;-67
2022/01/03 07:53:29;;;;;;;15.27;4.05;;;;;;;8.42;85.06;101111.28;5031203;28;20084;-68
2022/01/03 07:55:55;;;;;;;18.20;3.92;;;;;;;8.41;84.59;101114.78;5031825;28;20017;-67
2022/01/03 07:58:21;;;;;;;16.70;3.65;;;;;;;8.41;84.83;101117.38;5013654;28;20389;-67
2022/01/03 08:00:46;;;;;;;17.90;4.10;;;;;;;8.36;84.65;101124.63;5009014;28;20068;-67
2022/01/03 08:03:12;;;;;;;18.02;4.03;;;;;;;8.42;84.41;101126.78;5011371;28;20030;-67
2022/01/03 08:05:38;;;;;;;17.75;3.78;;;;;;;8.41;84.34;101135.47;5009825;28;20545;-67
2022/01/03 08:08:05;;;;;;;19.77;4.75;;;;;;;8.41;84.37;101114.78;5004514;28;20449;-67
2022/01/03 08:10:31;;;;;;;20.00;4.20;;;;;;;8.42;84.10;101126.78;4999591;28;20105;-68
2022/01/03 08:12:56;;;;;;;18.15;3.80;;;;;;;8.47;84.47;101113.56;5007347;28;20129;-67
2022/01/03 08:15:23;;;;;;;20.33;4.50;;;;;;;8.47;84.56;101118.72;5011241;28;20025;-67
2022/01/03 08:17:49;;;;;;;19.80;4.18;;;;;;;8.45;84.09;101105.91;5012737;28;20497;-67
2022/01/03 08:20:14;;;;;;;18.92;4.35;;;;;;;8.48;84.36;101110.84;5030838;28;20041;-68
2022/01/03 08:22:39;;;;;;;15.75;3.72;;;;;;;8.49;84.62;101117.69;5005850;28;20065;-67
2022/01/03 08:25:05;;;;;;;18.38;4.60;;;;;;;8.51;84.27;101109.84;5030643;28;20453;-67
2022/01/03 08:27:31;;;;;;;18.02;3.67;;;;;;;8.52;84.01;101114.88;5012927;28;20484;-67
2022/01/03 08:29:56;;;;;;;18.80;4.40;;;;;;;8.54;84.07;101108.78;5026105;28;20031;-67
2022/01/03 08:32:22;;;;;;;20.13;4.47;;;;;;;8.57;83.79;101108.59;5024512;28;20132;-67
2022/01/03 08:34:48;;;;;;;20.30;4.68;;;;;;;8.60;83.37;101104.03;5014760;28;20307;-67
2022/01/03 08:37:13;;;;;;;19.08;4.85;;;;;;;8.62;83.51;101102.16;5011005;28;20088;-68
2022/01/03 08:39:39;;;;;;;22.02;5.18;;;;;;;8.59;83.58;101107.53;5010973;28;20026;-67
2022/01/03 08:42:04;;;;;;;19.98;4.50;;;;;;;8.63;83.51;101103.00;4993047;28;20030;-67
2022/01/03 08:44:30;;;;;;;19.25;4.45;;;;;;;8.65;83.69;101106.28;5010727;28;20125;-69
2022/01/03 08:46:55;;;;;;;19.80;4.72;;;;;;;8.64;83.21;101109.81;5018648;28;20030;-67
2022/01/03 08:49:20;;;;;;;20.05;4.65;;;;;;;8.65;83.30;101119.22;5028656;28;20389;-67
2022/01/03 08:51:46;;;;;;;18.70;4.97;;;;;;;8.67;83.46;101119.97;5030059;28;20128;-68
2022/01/03 08:54:11;;;;;;;16.33;4.22;;;;;;;8.69;83.56;101125.84;5030594;28;20025;-67
2022/01/03 08:56:38;;;;;;;18.20;4.50;;;;;;;8.70;83.37;101130.06;5030497;28;20477;-67
2022/01/03 08:59:03;;;;;;;18.52;4.20;;;;;;;8.66;83.30;101133.78;5030157;28;20032;-68
2022/01/03 09:01:29;;;;;;;19.85;4.28;;;;;;;8.67;83.66;101138.06;5014555;28;20407;-67
2022/01/03 09:03:54;;;;;;;18.98;4.07;;;;;;;8.70;83.71;101145.59;5015430;28;20462;-67
2022/01/03 09:06:20;;;;;;;23.90;8.90;;;;;;;8.72;83.94;101143.75;5010106;28;20113;-67
2022/01/03 09:08:46;;;;;;;20.05;4.60;;;;;;;8.73;83.44;101135.88;5010264;28;20112;-67
2022/01/03 09:11:12;;;;;;;18.20;4.68;;;;;;;8.76;83.41;101137.41;5010800;28;20113;-67
2022/01/03 09:13:37;;;;;;;16.45;4.10;;;;;;;8.78;83.99;101127.81;5010460;28;20137;-67
2022/01/03 09:16:06;;;;;;;19.55;4.75;;;;;;;8.77;83.86;101115.78;4990052;28;20580;-67
2022/01/03 09:18:36;;;;;;;16.80;3.75;;;;;;;8.80;83.59;101115.59;5011837;28;20041;-67
2022/01/03 09:21:02;;;;;;;19.55;4.60;;;;;;;8.82;83.24;101118.88;5011994;28;20058;-67
2022/01/03 09:23:32;;;;;;;18.45;4.38;;;;;;;8.85;82.83;101123.84;5009969;28;20536;-67
2022/01/03 09:28:56;;;;;;;18.70;4.15;;;;;;;8.87;82.61;101114.22;5025170;28;20506;-67
2022/01/03 09:31:33;;;;;;;19.60;4.13;;;;;;;8.93;82.99;101102.63;5010603;28;20033;-67
2022/01/03 09:34:00;;;;;;;17.48;4.22;;;;;;;8.94;82.98;101112.84;5010059;28;20038;-67
2022/01/03 09:36:28;;;;;;;20.30;4.63;;;;;;;8.96;82.81;101095.47;5022443;28;20040;-67
2022/01/03 09:38:54;;;;;;;19.13;4.93;;;;;;;8.98;82.83;101098.78;5030064;28;20044;-67
2022/01/03 09:41:24;;;;;;;17.80;4.22;;;;;;;8.98;82.48;101093.59;5030279;28;20022;-67
2022/01/03 09:43:54;;;;;;;20.00;4.60;;;;;;;9.01;82.34;101083.03;5029865;28;20062;-67
2022/01/03 09:46:31;;;;;;;20.27;4.70;;;;;;;9.03;82.40;101088.94;5017199;28;20065;-67
2022/01/03 09:48:56;;;;;;;17.38;4.47;;;;;;;9.06;82.08;101093.06;5010681;28;20040;-67
2022/01/03 09:51:26;;;;;;;23.92;5.43;;;;;;;9.12;82.15;101100.41;5029809;28;20025;-67
2022/01/03 09:53:52;;;;;;;22.95;6.07;;;;;;;9.15;81.80;101101.94;5012559;28;20037;-70
2022/01/03 09:56:18;;;;;;;18.38;4.45;;;;;;;9.19;81.70;101100.78;5029912;28;20100;-67
2022/01/03 09:58:44;;;;;;;19.95;4.75;;;;;;;9.22;81.71;101085.03;5029974;28;20033;-67
2022/01/03 10:01:10;;;;;;;17.85;4.30;;;;;;;9.27;82.24;101098.47;5030538;28;20063;-67
2022/01/03 10:03:36;;;;;;;19.52;4.40;;;;;;;9.26;81.79;101087.28;5001443;28;20036;-68
2022/01/03 10:06:01;;;;;;;21.52;4.18;;;;;;;9.37;81.59;101103.81;5009214;28;20026;-67
2022/01/03 10:08:27;;;;;;;18.40;4.38;;;;;;;9.37;81.58;101099.47;5004517;28;20030;-67
2022/01/03 10:10:53;;;;;;;20.05;4.15;;;;;;;9.38;81.37;101093.34;5007875;28;20402;-67
2022/01/03 10:13:19;;;;;;;17.88;4.43;;;;;;;9.38;81.25;101101.09;5008625;28;20572;-67
2022/01/03 10:15:45;;;;;;;19.60;4.18;;;;;;;9.42;81.41;101079.25;5024192;28;20021;-67
2022/01/03 10:18:18;;;;;;;21.67;4.43;;;;;;;9.45;81.01;101091.94;5004137;28;20034;-68
2022/01/03 10:20:44;;;;;;;21.38;4.45;;;;;;;9.44;81.24;101082.53;5012788;28;20049;-67
2022/01/03 10:23:11;;;;;;;19.95;4.20;;;;;;;9.50;81.15;101091.63;5019718;28;20025;-67
2022/01/03 10:25:37;;;;;;;16.50;4.32;;;;;;;9.52;81.58;101097.53;4995140;28;20028;-67
2022/01/03 10:28:04;;;;;;;20.90;4.30;;;;;;;9.54;81.11;101093.06;5004769;28;20022;-67
2022/01/03 10:30:38;;;;;;;18.33;3.90;;;;;;;9.56;80.49;101088.59;5030168;28;20502;-67
2022/01/03 10:33:07;;;;;;;23.75;4.50;;;;;;;9.55;81.24;101084.34;5024775;28;20026;-67
2022/01/03 10:35:58;;;;;;;19.27;4.13;;;;;;;9.61;80.74;101081.31;5011415;28;20026;-67
2022/01/03 10:38:40;;;;;;;21.65;4.43;;;;;;;9.58;81.12;101074.59;5006659;28;20477;-67
2022/01/03 10:41:17;;;;;;;17.73;3.72;;;;;;;9.56;80.96;101068.69;5013142;28;20040;-67
2022/01/03 10:43:45;;;;;;;17.13;3.92;;;;;;;9.57;80.65;101059.16;5012413;28;20041;-67
2022/01/03 10:46:24;;;;;;;17.40;5.35;;;;;;;9.57;80.91;101059.97;5005896;28;21207;-67
2022/01/03 10:48:50;;;;;;;19.05;4.18;;;;;;;9.56;80.75;101068.69;5002687;28;20423;-67
2022/01/03 10:51:23;;;;;;;20.25;5.28;;;;;;;9.56;80.63;101058.34;5005540;28;20104;-67
2022/01/03 10:53:51;;;;;;;19.70;4.32;;;;;;;9.55;80.54;101051.50;4994265;28;20034;-67
2022/01/03 10:56:36;;;;;;;19.27;4.45;;;;;;;9.58;81.31;101055.66;5008989;28;20025;-67
2022/01/03 10:59:23;;;;;;;17.48;4.00;;;;;;;9.57;81.03;101044.44;5032419;28;20474;-67
2022/01/03 11:01:59;;;;;;;19.10;4.35;;;;;;;9.52;80.24;101046.56;5032568;28;20067;-67
2022/01/03 11:04:50;;;;;;;17.58;4.28;;;;;;;9.57;80.74;101044.44;5002075;28;20038;-67
2022/01/03 11:13:20;;;;;;;19.70;4.47;;;;;;;9.61;80.45;101031.28;5003424;28;20048;-67
2022/01/03 11:16:00;;;;;;;18.45;4.10;;;;;;;9.58;80.53;101030.59;5008480;28;20028;-67
2022/01/03 11:18:37;;;;;;;18.23;4.35;;;;;;;9.60;80.17;101032.22;5005659;28;20116;-67
2022/01/03 11:21:30;;;;;;;17.40;4.70;;;;;;;9.61;80.36;101029.50;5011337;28;20040;-68
2022/01/03 11:24:09;;;;;;;16.83;3.92;;;;;;;9.56;80.50;101022.09;5004370;28;20041;-68
2022/01/03 11:26:46;;;;;;;18.48;4.32;;;;;;;9.56;80.25;101031.63;5007336;28;20046;-66
2022/01/03 11:29:12;;;;;;;21.23;4.85;;;;;;;9.45;80.80;101008.28;5009639;28;20394;-67
2022/01/03 11:31:39;;;;;;;20.88;4.65;;;;;;;9.55;80.27;101025.63;5013346;28;20037;-67
2022/01/03 11:34:07;;;;;;;20.55;4.50;;;;;;;9.55;79.66;101019.63;5009380;28;20021;-67
2022/01/03 11:36:33;;;;;;;17.23;3.83;;;;;;;9.55;80.18;101015.25;5013992;28;20125;-67
2022/01/03 11:39:07;;;;;;;21.33;4.57;;;;;;;9.57;80.37;101023.72;4993904;28;20096;-67
2022/01/03 11:41:33;;;;;;;19.70;4.65;;;;;;;9.60;80.17;101017.50;4995173;28;20120;-67
2022/01/03 11:43:59;;;;;;;17.40;4.40;;;;;;;9.58;80.61;101004.69;5000836;28;20505;-67